createdAt,value
2022-11-28T00:02:35.691Z,42.92
2022-11-28T00:07:34.842Z,45.42
2022-11-28T00:12:35.066Z,42.05
2022-11-28T00:17:35.402Z,41.72
2022-11-28T00:22:34.324Z,39.38
2022-11-28T00:27:36.210Z,43.40
2022-11-28T00:32:36.367Z,40.47
2022-11-28T00:37:35.165Z,45.50
2022-11-28T00:42:33.934Z,41.38
2022-11-28T00:47:32.866Z,38.25
2022-11-28T00:52:34.676Z,39.28
2022-11-28T00:57:33.471Z,45.58
2022-11-28T01:02:32.412Z,41.40
2022-11-28T01:07:35.606Z,43.00
2022-11-28T01:12:34.507Z,43.60
2022-11-28T01:17:33.409Z,44.53
2022-11-28T01:22:32.190Z,42.50
2022-11-28T01:27:32.706Z,39.50
2022-11-28T01:32:31.713Z,41.85
2022-11-28T01:37:30.986Z,40.55
2022-11-28T01:42:29.926Z,41.58
2022-11-28T01:47:32.527Z,38.22
2022-11-28T01:52:31.390Z,41.67
2022-11-28T01:57:30.902Z,39.25
2022-11-28T02:02:35.107Z,38.72
2022-11-28T02:07:34.759Z,36.65
2022-11-28T02:12:52.417Z,38.65
2022-11-28T02:18:14.060Z,35.22
2022-11-28T02:23:19.882Z,34.88
2022-11-28T02:28:54.856Z,32.05
2022-11-28T02:33:58.390Z,32.28
2022-11-28T02:44:08.286Z,28.50
2022-11-28T02:49:14.139Z,26.63
2022-11-28T02:54:16.069Z,25.88
2022-11-28T02:59:32.533Z,28.95
2022-11-28T03:04:44.866Z,30.20
2022-11-28T03:09:57.461Z,28.90
2022-11-28T03:14:58.167Z,24.05
2022-11-28T03:20:08.327Z,21.45
2022-11-28T03:25:13.783Z,24.70
2022-11-28T03:30:20.033Z,19.95
2022-11-28T03:35:27.997Z,21.40
2022-11-28T03:40:30.401Z,21.67
2022-11-28T03:45:33.760Z,22.48
2022-11-28T03:50:39.268Z,24.00
2022-11-28T03:55:43.379Z,20.88
2022-11-28T04:00:53.177Z,26.13
2022-11-28T04:06:00.426Z,22.90
2022-11-28T04:11:07.250Z,27.15
2022-11-28T04:16:12.221Z,21.50
2022-11-28T04:21:17.411Z,22.58
2022-11-28T04:26:20.432Z,22.75
2022-11-28T04:31:22.757Z,24.80
2022-11-28T04:36:26.443Z,22.02
2022-11-28T04:46:33.717Z,22.27
2022-11-28T04:51:44.107Z,25.02
2022-11-28T04:56:46.801Z,24.17
2022-11-28T05:01:49.354Z,25.00
2022-11-28T05:06:49.685Z,22.75
2022-11-28T05:11:48.411Z,21.40
2022-11-28T05:16:47.309Z,23.55
2022-11-28T05:21:46.242Z,26.33
2022-11-28T05:26:46.450Z,25.42
2022-11-28T05:31:45.511Z,27.27
2022-11-28T05:36:44.392Z,26.65
2022-11-28T05:41:43.192Z,24.65
2022-11-28T05:46:43.508Z,26.48
2022-11-28T05:51:42.332Z,28.83
2022-11-28T05:56:42.611Z,28.27
2022-11-28T06:01:41.771Z,25.25
2022-11-28T06:06:42.009Z,26.17
2022-11-28T06:11:40.755Z,28.73
2022-11-28T06:16:39.608Z,31.13
2022-11-28T06:21:38.392Z,27.73
2022-11-28T06:26:38.625Z,24.85
2022-11-28T06:31:37.501Z,26.73
2022-11-28T06:36:36.411Z,28.63
2022-11-28T06:41:35.204Z,35.58
2022-11-28T06:46:35.443Z,27.48
2022-11-28T06:51:34.259Z,31.10
2022-11-28T06:56:33.002Z,38.97
2022-11-28T07:01:34.447Z,31.65
2022-11-28T07:06:35.321Z,28.25
2022-11-28T07:11:34.188Z,31.10
2022-11-28T07:16:34.441Z,37.70
2022-11-28T07:21:34.616Z,29.70
2022-11-28T07:26:33.516Z,27.45
2022-11-28T07:31:33.839Z,29.23
2022-11-28T07:36:34.308Z,30.25
2022-11-28T07:41:33.325Z,30.83
2022-11-28T07:46:33.936Z,32.85
2022-11-28T07:51:35.707Z,30.00
2022-11-28T07:57:04.446Z,25.75
2022-11-28T08:01:55.449Z,29.33
2022-11-28T08:06:57.105Z,29.38
2022-11-28T08:11:56.016Z,41.70
2022-11-28T08:16:54.908Z,32.60
2022-11-28T08:21:55.152Z,34.40
2022-11-28T08:26:53.957Z,50.92
2022-11-28T08:31:53.087Z,31.55
2022-11-28T08:36:51.970Z,36.45
2022-11-28T08:41:52.376Z,31.33
2022-11-28T08:46:51.339Z,42.63
2022-11-28T08:57:25.155Z,37.22
2022-11-28T09:02:26.064Z,37.63
2022-11-28T09:07:25.253Z,36.33
2022-11-28T09:12:25.913Z,39.05
2022-11-28T09:17:24.747Z,37.08
2022-11-28T09:22:23.639Z,46.40
2022-11-28T09:27:22.542Z,44.08
2022-11-28T09:32:22.940Z,41.65
2022-11-28T09:37:21.773Z,42.95
2022-11-28T09:42:29.736Z,43.75
2022-11-28T09:47:32.912Z,44.60
2022-11-28T09:52:38.874Z,41.15
2022-11-28T09:57:42.219Z,44.80
2022-11-28T10:08:00.192Z,43.15
2022-11-28T10:13:08.262Z,41.05
2022-11-28T10:18:24.725Z,41.38
2022-11-28T10:23:28.484Z,37.40
2022-11-28T10:28:31.831Z,43.25
2022-11-28T10:38:36.989Z,37.08
2022-11-28T10:43:44.194Z,41.80
2022-11-28T10:48:53.314Z,33.97
2022-11-28T10:54:05.929Z,34.80
2022-11-28T10:59:13.306Z,37.83
2022-11-28T11:04:19.878Z,31.85
2022-11-28T11:09:18.873Z,33.05
2022-11-28T11:14:33.877Z,31.73
2022-11-28T11:19:36.306Z,36.00
2022-11-28T11:24:35.313Z,33.27
2022-11-28T11:29:36.577Z,34.88
2022-11-28T11:34:55.718Z,35.22
2022-11-28T11:39:54.773Z,36.38
2022-11-28T11:44:54.109Z,29.05
2022-11-28T11:50:05.213Z,32.85
2022-11-28T11:55:14.944Z,34.20
2022-11-28T12:00:19.406Z,32.75
2022-11-28T12:05:22.056Z,30.67
2022-11-28T12:10:25.369Z,36.63
2022-11-28T12:15:36.568Z,38.78
2022-11-28T12:20:47.884Z,39.88
2022-11-28T12:25:54.434Z,33.88
2022-11-28T12:31:04.352Z,30.42
2022-11-28T12:36:13.941Z,33.30
2022-11-28T12:41:33.030Z,40.15
2022-11-28T12:46:40.984Z,35.30
2022-11-28T12:52:01.241Z,43.70
2022-11-28T12:57:13.053Z,30.88
2022-11-28T13:02:30.975Z,31.42
2022-11-28T13:07:42.058Z,30.42
2022-11-28T13:12:49.706Z,31.67
2022-11-28T13:17:55.377Z,30.70
2022-11-28T13:23:10.165Z,31.38
2022-11-28T13:28:17.621Z,32.65
2022-11-28T13:33:34.588Z,36.22
2022-11-28T13:39:08.291Z,40.03
2022-11-28T13:44:16.319Z,32.90
2022-11-28T13:49:24.444Z,32.90
2022-11-28T13:54:48.914Z,32.45
2022-11-28T13:59:55.229Z,30.48
2022-11-28T14:04:54.267Z,30.58
2022-11-28T14:10:09.265Z,29.73
2022-11-28T14:15:27.425Z,26.15
2022-11-28T14:20:32.515Z,30.90
2022-11-28T14:25:40.472Z,36.17
2022-11-28T14:30:43.475Z,28.17
2022-11-28T14:36:14.973Z,32.33
2022-11-28T14:41:16.988Z,30.10
2022-11-28T14:46:33.731Z,26.13
2022-11-28T14:52:30.849Z,27.52
2022-11-28T14:57:32.793Z,24.75
2022-11-28T15:02:53.083Z,29.45
2022-11-28T15:08:20.723Z,25.98
2022-11-28T15:13:36.372Z,31.17
2022-11-28T15:18:36.558Z,26.77
2022-11-28T15:23:38.578Z,26.95
2022-11-28T15:28:38.950Z,32.78
2022-11-28T15:33:44.342Z,27.85
2022-11-28T15:38:44.724Z,28.25
2022-11-28T15:43:47.266Z,26.15
2022-11-28T15:48:50.567Z,24.13
2022-11-28T15:53:50.256Z,28.15
2022-11-28T15:58:52.069Z,27.58
2022-11-28T16:03:56.000Z,28.67
2022-11-28T16:08:58.448Z,31.27
2022-11-28T16:14:02.217Z,26.40
2022-11-28T16:19:03.014Z,32.15
2022-11-28T16:24:04.544Z,28.08
2022-11-28T16:29:16.085Z,29.15
2022-11-28T16:34:15.882Z,28.77
2022-11-28T16:39:18.008Z,25.77
2022-11-28T16:44:22.367Z,32.83
2022-11-28T16:49:36.612Z,30.40
2022-11-28T16:54:35.677Z,39.20
2022-11-28T16:59:36.289Z,37.92
2022-11-28T17:04:38.611Z,39.70
2022-11-28T17:09:37.971Z,34.55
2022-11-28T17:14:42.376Z,42.53
2022-11-28T17:19:46.210Z,41.28
2022-11-28T17:24:47.700Z,33.42
2022-11-28T17:29:48.055Z,31.50
2022-11-28T17:34:49.315Z,37.38
2022-11-28T17:40:05.484Z,44.60
2022-11-28T17:45:10.619Z,36.28
2022-11-28T17:50:11.481Z,31.85
2022-11-28T17:55:14.816Z,29.27
2022-11-28T18:00:18.359Z,26.33
2022-11-28T18:05:17.619Z,25.02
2022-11-28T18:10:16.994Z,27.23
2022-11-28T18:15:17.407Z,27.73
2022-11-28T18:20:16.954Z,24.23
2022-11-28T18:25:15.815Z,29.70
2022-11-28T18:30:17.480Z,28.92
2022-11-28T18:35:17.457Z,32.80
2022-11-28T18:40:16.757Z,31.33
2022-11-28T18:45:18.126Z,30.95
2022-11-28T18:50:18.148Z,30.85
2022-11-28T18:55:18.180Z,26.25
2022-11-28T19:00:19.912Z,30.48
2022-11-28T19:05:21.217Z,29.55
2022-11-28T19:10:20.494Z,28.77
2022-11-28T19:15:20.801Z,31.08
2022-11-28T19:20:20.320Z,26.27
2022-11-28T19:25:20.262Z,33.67
2022-11-28T19:30:20.975Z,28.35
2022-11-28T19:35:20.144Z,27.20
2022-11-28T19:40:19.127Z,26.70
2022-11-28T19:45:19.695Z,26.83
2022-11-28T19:50:19.989Z,30.25
2022-11-28T19:55:19.865Z,30.42
2022-11-28T20:00:20.155Z,30.95
2022-11-28T20:05:20.918Z,26.83
2022-11-28T20:10:20.032Z,29.20
2022-11-28T20:15:18.971Z,32.53
2022-11-28T20:20:18.145Z,27.23
2022-11-28T20:25:22.834Z,29.95
2022-11-28T20:30:25.036Z,29.23
2022-11-28T20:35:42.466Z,32.05
2022-11-28T20:40:44.285Z,26.45
2022-11-28T20:45:44.629Z,28.73
2022-11-28T20:50:46.698Z,28.95
2022-11-28T20:55:53.748Z,29.48
2022-11-28T21:01:00.221Z,29.83
2022-11-28T21:06:04.650Z,29.83
2022-11-28T21:11:25.577Z,25.08
2022-11-28T21:16:35.898Z,27.73
2022-11-28T21:21:38.838Z,26.05
2022-11-28T21:26:48.106Z,25.83
2022-11-28T21:31:53.915Z,28.80
2022-11-28T21:36:54.933Z,31.27
2022-11-28T21:41:55.477Z,28.10
2022-11-28T21:46:54.386Z,27.95
2022-11-28T21:51:54.106Z,27.52
2022-11-28T21:56:56.661Z,25.23
2022-11-28T22:01:56.247Z,27.35
2022-11-28T22:06:55.785Z,25.75
2022-11-28T22:11:56.193Z,26.35
2022-11-28T22:16:55.323Z,25.65
2022-11-28T22:21:56.395Z,26.48
2022-11-28T22:26:57.787Z,25.85
2022-11-28T22:31:56.878Z,26.33
2022-11-28T22:36:56.391Z,25.83
2022-11-28T22:41:55.490Z,23.73
2022-11-28T22:46:55.838Z,21.58
2022-11-28T22:51:54.864Z,19.60
2022-11-28T22:56:55.321Z,23.13
2022-11-28T23:01:56.352Z,19.67
2022-11-28T23:06:55.412Z,23.38
2022-11-28T23:11:54.642Z,23.90
2022-11-28T23:16:53.653Z,22.65
2022-11-28T23:21:54.022Z,25.35
2022-11-28T23:26:54.250Z,22.52
2022-11-28T23:31:53.341Z,21.40
2022-11-28T23:36:53.923Z,22.58
2022-11-28T23:41:59.986Z,20.85
2022-11-28T23:46:58.995Z,21.83
2022-11-28T23:51:59.244Z,21.67
2022-11-28T23:56:58.150Z,20.42
